sensor_id;sensor_type;location;lat;lon;timestamp;P1;durP1;ratioP1;P2;durP2;ratioP2
28245;SDS011;15510;52.512;13.300;2022-08-25T00:01:20;7.60;;;6.13;;
28245;SDS011;15510;52.512;13.300;2022-08-25T00:03:49;8.55;;;6.05;;
28245;SDS011;15510;52.512;13.300;2022-08-25T00:06:15;10.55;;;6.38;;
28245;SDS011;15510;52.512;13.300;2022-08-25T00:08:41;10.52;;;6.15;;
28245;SDS011;15510;52.512;13.300;2022-08-25T00:11:08;8.00;;;6.35;;
28245;SDS011;15510;52.512;13.300;2022-08-25T00:13:38;9.05;;;5.70;;
28245;SDS011;15510;52.512;13.300;2022-08-25T00:16:08;10.77;;;5.97;;
28245;SDS011;15510;52.512;13.300;2022-08-25T00:18:35;8.52;;;6.47;;
28245;SDS011;15510;52.512;13.300;2022-08-25T00:21:03;12.75;;;6.70;;
28245;SDS011;15510;52.512;13.300;2022-08-25T00:23:30;9.85;;;6.90;;
28245;SDS011;15510;52.512;13.300;2022-08-25T00:25:56;7.95;;;5.72;;
28245;SDS011;15510;52.512;13.300;2022-08-25T00:28:21;8.68;;;5.70;;
28245;SDS011;15510;52.512;13.300;2022-08-25T00:30:47;10.82;;;6.40;;
28245;SDS011;15510;52.512;13.300;2022-08-25T00:33:13;9.38;;;7.13;;
28245;SDS011;15510;52.512;13.300;2022-08-25T00:35:40;7.78;;;6.10;;
28245;SDS011;15510;52.512;13.300;2022-08-25T00:38:07;8.93;;;6.25;;
28245;SDS011;15510;52.512;13.300;2022-08-25T00:40:33;11.85;;;6.43;;
28245;SDS011;15510;52.512;13.300;2022-08-25T00:42:59;8.65;;;6.75;;
28245;SDS011;15510;52.512;13.300;2022-08-25T00:45:25;12.23;;;6.72;;
28245;SDS011;15510;52.512;13.300;2022-08-25T00:47:51;9.68;;;6.63;;
28245;SDS011;15510;52.512;13.300;2022-08-25T00:50:16;11.05;;;6.80;;
28245;SDS011;15510;52.512;13.300;2022-08-25T00:52:47;10.43;;;5.82;;
28245;SDS011;15510;52.512;13.300;2022-08-25T00:57:54;14.60;;;6.28;;
28245;SDS011;15510;52.512;13.300;2022-08-25T01:00:37;8.60;;;6.28;;
28245;SDS011;15510;52.512;13.300;2022-08-25T01:03:04;11.13;;;6.60;;
28245;SDS011;15510;52.512;13.300;2022-08-25T01:05:30;9.10;;;6.45;;
28245;SDS011;15510;52.512;13.300;2022-08-25T01:07:56;8.93;;;6.28;;
28245;SDS011;15510;52.512;13.300;2022-08-25T01:10:23;9.13;;;6.00;;
28245;SDS011;15510;52.512;13.300;2022-08-25T01:12:50;11.02;;;6.10;;
28245;SDS011;15510;52.512;13.300;2022-08-25T01:15:19;9.98;;;6.15;;
28245;SDS011;15510;52.512;13.300;2022-08-25T01:17:50;8.38;;;6.35;;
28245;SDS011;15510;52.512;13.300;2022-08-25T01:20:19;8.80;;;6.00;;
28245;SDS011;15510;52.512;13.300;2022-08-25T01:22:47;7.82;;;6.00;;
28245;SDS011;15510;52.512;13.300;2022-08-25T01:25:19;10.88;;;6.57;;
28245;SDS011;15510;52.512;13.300;2022-08-25T01:28:05;12.45;;;6.47;;
28245;SDS011;15510;52.512;13.300;2022-08-25T01:30:31;10.77;;;6.90;;
28245;SDS011;15510;52.512;13.300;2022-08-25T01:32:57;12.77;;;6.65;;
28245;SDS011;15510;52.512;13.300;2022-08-25T01:35:23;10.82;;;7.35;;
28245;SDS011;15510;52.512;13.300;2022-08-25T01:37:48;12.57;;;5.95;;
28245;SDS011;15510;52.512;13.300;2022-08-25T01:40:14;9.77;;;6.45;;
28245;SDS011;15510;52.512;13.300;2022-08-25T01:45:10;12.27;;;6.32;;
28245;SDS011;15510;52.512;13.300;2022-08-25T01:47:36;13.57;;;6.35;;
28245;SDS011;15510;52.512;13.300;2022-08-25T01:50:03;13.27;;;7.53;;
28245;SDS011;15510;52.512;13.300;2022-08-25T01:52:36;11.20;;;6.45;;
28245;SDS011;15510;52.512;13.300;2022-08-25T01:55:15;8.27;;;6.18;;
28245;SDS011;15510;52.512;13.300;2022-08-25T01:57:40;10.88;;;6.20;;
28245;SDS011;15510;52.512;13.300;2022-08-25T02:00:08;8.90;;;5.95;;
28245;SDS011;15510;52.512;13.300;2022-08-25T02:02:37;9.27;;;6.88;;
28245;SDS011;15510;52.512;13.300;2022-08-25T02:05:03;10.25;;;6.18;;
28245;SDS011;15510;52.512;13.300;2022-08-25T02:07:30;11.07;;;6.80;;
28245;SDS011;15510;52.512;13.300;2022-08-25T02:09:56;9.40;;;6.80;;
28245;SDS011;15510;52.512;13.300;2022-08-25T02:12:22;12.13;;;7.05;;
28245;SDS011;15510;52.512;13.300;2022-08-25T02:14:47;12.23;;;6.47;;
28245;SDS011;15510;52.512;13.300;2022-08-25T02:17:13;8.27;;;6.55;;
28245;SDS011;15510;52.512;13.300;2022-08-25T02:19:39;14.00;;;6.75;;
28245;SDS011;15510;52.512;13.300;2022-08-25T02:22:05;11.20;;;6.97;;
28245;SDS011;15510;52.512;13.300;2022-08-25T02:24:30;8.95;;;6.40;;
28245;SDS011;15510;52.512;13.300;2022-08-25T02:26:56;12.35;;;6.95;;
28245;SDS011;15510;52.512;13.300;2022-08-25T02:29:22;9.80;;;7.57;;
28245;SDS011;15510;52.512;13.300;2022-08-25T02:31:48;8.55;;;6.47;;
28245;SDS011;15510;52.512;13.300;2022-08-25T02:34:14;10.55;;;6.55;;
28245;SDS011;15510;52.512;13.300;2022-08-25T02:36:40;12.50;;;7.25;;
28245;SDS011;15510;52.512;13.300;2022-08-25T02:39:06;11.23;;;6.82;;
28245;SDS011;15510;52.512;13.300;2022-08-25T02:41:33;14.30;;;7.03;;
28245;SDS011;15510;52.512;13.300;2022-08-25T02:44:00;9.70;;;6.93;;
28245;SDS011;15510;52.512;13.300;2022-08-25T02:46:27;13.70;;;7.78;;
28245;SDS011;15510;52.512;13.300;2022-08-25T02:48:53;13.50;;;7.20;;
28245;SDS011;15510;52.512;13.300;2022-08-25T02:51:20;12.13;;;7.25;;
28245;SDS011;15510;52.512;13.300;2022-08-25T02:53:47;15.40;;;7.78;;
28245;SDS011;15510;52.512;13.300;2022-08-25T02:56:14;11.73;;;7.90;;
28245;SDS011;15510;52.512;13.300;2022-08-25T02:58:40;11.55;;;7.40;;
28245;SDS011;15510;52.512;13.300;2022-08-25T03:01:06;15.27;;;7.57;;
28245;SDS011;15510;52.512;13.300;2022-08-25T03:03:36;10.25;;;6.90;;
28245;SDS011;15510;52.512;13.300;2022-08-25T03:06:04;12.80;;;6.93;;
28245;SDS011;15510;52.512;13.300;2022-08-25T03:08:32;10.32;;;7.22;;
28245;SDS011;15510;52.512;13.300;2022-08-25T03:10:57;9.25;;;7.78;;
28245;SDS011;15510;52.512;13.300;2022-08-25T03:13:23;16.20;;;7.55;;
28245;SDS011;15510;52.512;13.300;2022-08-25T03:15:48;12.82;;;8.15;;
28245;SDS011;15510;52.512;13.300;2022-08-25T03:18:14;16.58;;;8.20;;
28245;SDS011;15510;52.512;13.300;2022-08-25T03:20:40;15.45;;;8.05;;
28245;SDS011;15510;52.512;13.300;2022-08-25T03:23:05;13.40;;;7.63;;
28245;SDS011;15510;52.512;13.300;2022-08-25T03:25:32;12.73;;;7.70;;
28245;SDS011;15510;52.512;13.300;2022-08-25T03:28:16;14.63;;;8.35;;
28245;SDS011;15510;52.512;13.300;2022-08-25T03:30:43;13.02;;;7.82;;
28245;SDS011;15510;52.512;13.300;2022-08-25T03:33:09;13.05;;;7.45;;
28245;SDS011;15510;52.512;13.300;2022-08-25T03:35:35;14.25;;;8.20;;
28245;SDS011;15510;52.512;13.300;2022-08-25T03:38:01;14.13;;;8.00;;
28245;SDS011;15510;52.512;13.300;2022-08-25T03:40:27;14.52;;;8.32;;
28245;SDS011;15510;52.512;13.300;2022-08-25T03:42:56;15.30;;;8.95;;
28245;SDS011;15510;52.512;13.300;2022-08-25T03:45:25;14.77;;;7.80;;
28245;SDS011;15510;52.512;13.300;2022-08-25T03:47:51;13.68;;;8.50;;
28245;SDS011;15510;52.512;13.300;2022-08-25T03:50:18;13.88;;;8.43;;
28245;SDS011;15510;52.512;13.300;2022-08-25T03:52:49;14.32;;;8.90;;
28245;SDS011;15510;52.512;13.300;2022-08-25T03:55:25;15.10;;;8.70;;
28245;SDS011;15510;52.512;13.300;2022-08-25T03:58:00;12.52;;;9.25;;
28245;SDS011;15510;52.512;13.300;2022-08-25T04:00:51;14.20;;;8.35;;
28245;SDS011;15510;52.512;13.300;2022-08-25T04:03:17;15.68;;;9.57;;
28245;SDS011;15510;52.512;13.300;2022-08-25T04:05:43;13.18;;;9.77;;
28245;SDS011;15510;52.512;13.300;2022-08-25T04:08:10;17.20;;;8.98;;
28245;SDS011;15510;52.512;13.300;2022-08-25T04:10:35;15.32;;;9.68;;
28245;SDS011;15510;52.512;13.300;2022-08-25T04:13:01;13.50;;;9.35;;
28245;SDS011;15510;52.512;13.300;2022-08-25T04:15:27;16.73;;;10.32;;
28245;SDS011;15510;52.512;13.300;2022-08-25T04:17:53;13.30;;;10.70;;
28245;SDS011;15510;52.512;13.300;2022-08-25T04:20:21;15.25;;;11.15;;
28245;SDS011;15510;52.512;13.300;2022-08-25T04:22:55;16.08;;;11.15;;
28245;SDS011;15510;52.512;13.300;2022-08-25T04:25:24;17.20;;;11.90;;
28245;SDS011;15510;52.512;13.300;2022-08-25T04:27:50;18.25;;;13.25;;
28245;SDS011;15510;52.512;13.300;2022-08-25T04:30:15;18.13;;;12.20;;
28245;SDS011;15510;52.512;13.300;2022-08-25T04:32:42;21.92;;;13.80;;
28245;SDS011;15510;52.512;13.300;2022-08-25T04:35:08;21.63;;;13.48;;
28245;SDS011;15510;52.512;13.300;2022-08-25T04:37:34;16.23;;;12.98;;
28245;SDS011;15510;52.512;13.300;2022-08-25T04:40:00;20.20;;;13.65;;
28245;SDS011;15510;52.512;13.300;2022-08-25T04:42:26;22.88;;;15.98;;
28245;SDS011;15510;52.512;13.300;2022-08-25T04:44:51;23.45;;;15.63;;
28245;SDS011;15510;52.512;13.300;2022-08-25T04:47:18;28.50;;;15.50;;
28245;SDS011;15510;52.512;13.300;2022-08-25T04:49:43;25.35;;;14.68;;
28245;SDS011;15510;52.512;13.300;2022-08-25T04:52:09;21.45;;;15.30;;
28245;SDS011;15510;52.512;13.300;2022-08-25T04:54:35;22.70;;;16.23;;
28245;SDS011;15510;52.512;13.300;2022-08-25T04:57:00;27.88;;;15.40;;
28245;SDS011;15510;52.512;13.300;2022-08-25T04:59:26;26.17;;;15.02;;
28245;SDS011;15510;52.512;13.300;2022-08-25T05:01:52;22.98;;;14.73;;
28245;SDS011;15510;52.512;13.300;2022-08-25T05:04:19;24.63;;;15.63;;
28245;SDS011;15510;52.512;13.300;2022-08-25T05:06:45;23.33;;;15.20;;
28245;SDS011;15510;52.512;13.300;2022-08-25T05:09:11;24.55;;;15.60;;
28245;SDS011;15510;52.512;13.300;2022-08-25T05:11:36;21.73;;;14.93;;
28245;SDS011;15510;52.512;13.300;2022-08-25T05:14:02;22.25;;;16.00;;
28245;SDS011;15510;52.512;13.300;2022-08-25T05:16:28;21.30;;;14.90;;
28245;SDS011;15510;52.512;13.300;2022-08-25T05:18:55;21.30;;;14.63;;
28245;SDS011;15510;52.512;13.300;2022-08-25T05:21:23;27.65;;;16.10;;
28245;SDS011;15510;52.512;13.300;2022-08-25T05:23:53;21.00;;;15.30;;
28245;SDS011;15510;52.512;13.300;2022-08-25T05:26:21;23.27;;;15.32;;
28245;SDS011;15510;52.512;13.300;2022-08-25T05:28:48;20.45;;;15.30;;
28245;SDS011;15510;52.512;13.300;2022-08-25T05:31:15;25.95;;;15.95;;
28245;SDS011;15510;52.512;13.300;2022-08-25T05:33:42;22.25;;;15.45;;
28245;SDS011;15510;52.512;13.300;2022-08-25T05:36:08;23.38;;;15.93;;
28245;SDS011;15510;52.512;13.300;2022-08-25T05:38:35;23.75;;;15.45;;
28245;SDS011;15510;52.512;13.300;2022-08-25T05:41:03;20.77;;;14.27;;
28245;SDS011;15510;52.512;13.300;2022-08-25T05:43:30;17.70;;;13.05;;
28245;SDS011;15510;52.512;13.300;2022-08-25T05:45:57;19.75;;;13.82;;
28245;SDS011;15510;52.512;13.300;2022-08-25T05:48:23;19.90;;;13.90;;
28245;SDS011;15510;52.512;13.300;2022-08-25T05:50:55;18.63;;;13.32;;
28245;SDS011;15510;52.512;13.300;2022-08-25T05:53:23;24.25;;;13.25;;
28245;SDS011;15510;52.512;13.300;2022-08-25T05:55:52;21.50;;;14.65;;
28245;SDS011;15510;52.512;13.300;2022-08-25T05:58:21;18.98;;;13.10;;
28245;SDS011;15510;52.512;13.300;2022-08-25T06:00:48;16.30;;;13.02;;
28245;SDS011;15510;52.512;13.300;2022-08-25T06:03:14;16.42;;;12.90;;
28245;SDS011;15510;52.512;13.300;2022-08-25T06:05:40;17.08;;;12.65;;
28245;SDS011;15510;52.512;13.300;2022-08-25T06:08:06;18.35;;;12.43;;
28245;SDS011;15510;52.512;13.300;2022-08-25T06:10:32;18.83;;;12.27;;
28245;SDS011;15510;52.512;13.300;2022-08-25T06:12:58;16.77;;;11.75;;
28245;SDS011;15510;52.512;13.300;2022-08-25T06:15:25;17.50;;;12.13;;
28245;SDS011;15510;52.512;13.300;2022-08-25T06:17:51;15.90;;;11.85;;
28245;SDS011;15510;52.512;13.300;2022-08-25T06:20:21;16.63;;;12.20;;
28245;SDS011;15510;52.512;13.300;2022-08-25T06:22:49;14.85;;;11.57;;
28245;SDS011;15510;52.512;13.300;2022-08-25T06:25:16;14.50;;;11.63;;
28245;SDS011;15510;52.512;13.300;2022-08-25T06:27:44;16.95;;;11.48;;
28245;SDS011;15510;52.512;13.300;2022-08-25T06:30:11;16.10;;;12.13;;
28245;SDS011;15510;52.512;13.300;2022-08-25T06:32:39;19.15;;;12.82;;
28245;SDS011;15510;52.512;13.300;2022-08-25T06:35:07;17.15;;;12.55;;
28245;SDS011;15510;52.512;13.300;2022-08-25T06:37:35;18.58;;;12.73;;
28245;SDS011;15510;52.512;13.300;2022-08-25T06:40:01;17.38;;;12.60;;
28245;SDS011;15510;52.512;13.300;2022-08-25T06:42:28;17.52;;;13.43;;
28245;SDS011;15510;52.512;13.300;2022-08-25T06:44:53;16.88;;;12.35;;
28245;SDS011;15510;52.512;13.300;2022-08-25T06:47:19;17.35;;;12.52;;
28245;SDS011;15510;52.512;13.300;2022-08-25T06:49:45;15.07;;;11.82;;
28245;SDS011;15510;52.512;13.300;2022-08-25T06:52:11;20.15;;;13.00;;
28245;SDS011;15510;52.512;13.300;2022-08-25T06:54:37;17.92;;;14.43;;
28245;SDS011;15510;52.512;13.300;2022-08-25T06:57:04;19.85;;;13.27;;
28245;SDS011;15510;52.512;13.300;2022-08-25T06:59:30;16.27;;;12.75;;
28245;SDS011;15510;52.512;13.300;2022-08-25T07:01:57;18.15;;;13.25;;
28245;SDS011;15510;52.512;13.300;2022-08-25T07:04:23;19.27;;;14.20;;
28245;SDS011;15510;52.512;13.300;2022-08-25T07:06:49;16.02;;;13.02;;
28245;SDS011;15510;52.512;13.300;2022-08-25T07:09:15;17.50;;;13.13;;
28245;SDS011;15510;52.512;13.300;2022-08-25T07:11:41;16.90;;;12.05;;
28245;SDS011;15510;52.512;13.300;2022-08-25T07:14:08;21.65;;;13.40;;
28245;SDS011;15510;52.512;13.300;2022-08-25T07:16:35;21.95;;;13.45;;
28245;SDS011;15510;52.512;13.300;2022-08-25T07:19:02;16.85;;;13.10;;
28245;SDS011;15510;52.512;13.300;2022-08-25T07:21:29;24.48;;;14.73;;
28245;SDS011;15510;52.512;13.300;2022-08-25T07:23:56;17.92;;;12.48;;
28245;SDS011;15510;52.512;13.300;2022-08-25T07:26:26;18.33;;;13.20;;
28245;SDS011;15510;52.512;13.300;2022-08-25T07:28:53;16.88;;;12.70;;
28245;SDS011;15510;52.512;13.300;2022-08-25T07:31:20;17.77;;;12.90;;
28245;SDS011;15510;52.512;13.300;2022-08-25T07:33:46;19.38;;;12.93;;
28245;SDS011;15510;52.512;13.300;2022-08-25T07:36:31;20.60;;;13.27;;
28245;SDS011;15510;52.512;13.300;2022-08-25T07:38:57;19.02;;;13.35;;
28245;SDS011;15510;52.512;13.300;2022-08-25T07:41:24;16.95;;;12.52;;
28245;SDS011;15510;52.512;13.300;2022-08-25T07:43:50;19.67;;;12.88;;
28245;SDS011;15510;52.512;13.300;2022-08-25T07:46:16;15.40;;;12.27;;
28245;SDS011;15510;52.512;13.300;2022-08-25T07:48:42;18.25;;;13.40;;
28245;SDS011;15510;52.512;13.300;2022-08-25T07:51:08;17.63;;;12.52;;
28245;SDS011;15510;52.512;13.300;2022-08-25T07:53:36;15.30;;;12.13;;
28245;SDS011;15510;52.512;13.300;2022-08-25T07:56:08;18.67;;;12.30;;
28245;SDS011;15510;52.512;13.300;2022-08-25T07:58:35;17.75;;;12.77;;
28245;SDS011;15510;52.512;13.300;2022-08-25T08:01:01;19.73;;;14.02;;
28245;SDS011;15510;52.512;13.300;2022-08-25T08:03:27;23.88;;;13.07;;
28245;SDS011;15510;52.512;13.300;2022-08-25T08:05:54;18.67;;;13.38;;
28245;SDS011;15510;52.512;13.300;2022-08-25T08:08:20;20.58;;;13.52;;
28245;SDS011;15510;52.512;13.300;2022-08-25T08:10:46;21.92;;;14.13;;
28245;SDS011;15510;52.512;13.300;2022-08-25T08:13:14;19.10;;;13.38;;
28245;SDS011;15510;52.512;13.300;2022-08-25T08:15:41;20.55;;;12.52;;
28245;SDS011;15510;52.512;13.300;2022-08-25T08:18:08;21.05;;;13.63;;
28245;SDS011;15510;52.512;13.300;2022-08-25T08:20:34;20.65;;;14.18;;
28245;SDS011;15510;52.512;13.300;2022-08-25T08:23:01;23.17;;;14.05;;
28245;SDS011;15510;52.512;13.300;2022-08-25T08:25:27;24.63;;;14.02;;
28245;SDS011;15510;52.512;13.300;2022-08-25T08:27:54;20.60;;;13.00;;
28245;SDS011;15510;52.512;13.300;2022-08-25T08:30:20;18.55;;;13.05;;
28245;SDS011;15510;52.512;13.300;2022-08-25T08:32:47;18.40;;;12.60;;
28245;SDS011;15510;52.512;13.300;2022-08-25T08:35:14;19.77;;;13.15;;
28245;SDS011;15510;52.512;13.300;2022-08-25T08:37:45;20.42;;;12.68;;
28245;SDS011;15510;52.512;13.300;2022-08-25T08:40:13;21.15;;;13.52;;
28245;SDS011;15510;52.512;13.300;2022-08-25T08:47:48;21.10;;;13.07;;
28245;SDS011;15510;52.512;13.300;2022-08-25T08:50:33;21.67;;;13.65;;
28245;SDS011;15510;52.512;13.300;2022-08-25T08:53:09;19.25;;;12.35;;
28245;SDS011;15510;52.512;13.300;2022-08-25T08:55:59;22.95;;;13.43;;
28245;SDS011;15510;52.512;13.300;2022-08-25T08:58:43;18.27;;;13.38;;
28245;SDS011;15510;52.512;13.300;2022-08-25T09:01:16;21.63;;;12.88;;
28245;SDS011;15510;52.512;13.300;2022-08-25T09:03:51;18.63;;;12.93;;
28245;SDS011;15510;52.512;13.300;2022-08-25T09:06:41;23.73;;;13.38;;
28245;SDS011;15510;52.512;13.300;2022-08-25T09:09:23;19.92;;;13.00;;
28245;SDS011;15510;52.512;13.300;2022-08-25T09:15:00;19.17;;;12.77;;
28245;SDS011;15510;52.512;13.300;2022-08-25T09:17:50;18.27;;;14.75;;
28245;SDS011;15510;52.512;13.300;2022-08-25T09:26:24;15.93;;;10.07;;
28245;SDS011;15510;52.512;13.300;2022-08-25T09:29:23;16.98;;;10.05;;
28245;SDS011;15510;52.512;13.300;2022-08-25T09:31:50;13.20;;;10.20;;
28245;SDS011;15510;52.512;13.300;2022-08-25T09:34:18;12.65;;;9.57;;
28245;SDS011;15510;52.512;13.300;2022-08-25T09:36:46;16.67;;;9.45;;
28245;SDS011;15510;52.512;13.300;2022-08-25T09:39:14;17.35;;;8.75;;
28245;SDS011;15510;52.512;13.300;2022-08-25T09:41:43;16.75;;;9.25;;
28245;SDS011;15510;52.512;13.300;2022-08-25T09:44:55;17.20;;;9.15;;
28245;SDS011;15510;52.512;13.300;2022-08-25T09:47:20;10.30;;;8.18;;
28245;SDS011;15510;52.512;13.300;2022-08-25T09:54:57;17.83;;;8.15;;
28245;SDS011;15510;52.512;13.300;2022-08-25T09:57:37;12.95;;;8.13;;
28245;SDS011;15510;52.512;13.300;2022-08-25T10:00:09;14.07;;;7.93;;
28245;SDS011;15510;52.512;13.300;2022-08-25T10:03:06;13.27;;;7.75;;
28245;SDS011;15510;52.512;13.300;2022-08-25T10:05:58;13.85;;;8.25;;
28245;SDS011;15510;52.512;13.300;2022-08-25T10:08:31;11.52;;;7.72;;
28245;SDS011;15510;52.512;13.300;2022-08-25T10:11:00;10.93;;;7.63;;
28245;SDS011;15510;52.512;13.300;2022-08-25T10:13:34;12.13;;;7.65;;
28245;SDS011;15510;52.512;13.300;2022-08-25T10:16:03;10.32;;;7.15;;
28245;SDS011;15510;52.512;13.300;2022-08-25T10:18:31;11.43;;;7.38;;
28245;SDS011;15510;52.512;13.300;2022-08-25T10:23:35;14.88;;;7.18;;
28245;SDS011;15510;52.512;13.300;2022-08-25T10:26:08;12.63;;;7.00;;
28245;SDS011;15510;52.512;13.300;2022-08-25T10:37:07;13.32;;;7.28;;
28245;SDS011;15510;52.512;13.300;2022-08-25T10:45:52;14.10;;;6.57;;
28245;SDS011;15510;52.512;13.300;2022-08-25T10:56:31;9.60;;;5.50;;
28245;SDS011;15510;52.512;13.300;2022-08-25T11:06:59;7.82;;;4.68;;
28245;SDS011;15510;52.512;13.300;2022-08-25T11:09:34;8.32;;;4.75;;
28245;SDS011;15510;52.512;13.300;2022-08-25T11:12:25;12.60;;;4.57;;
28245;SDS011;15510;52.512;13.300;2022-08-25T11:14:56;11.10;;;4.93;;
28245;SDS011;15510;52.512;13.300;2022-08-25T11:20:23;10.85;;;4.57;;
28245;SDS011;15510;52.512;13.300;2022-08-25T11:23:05;10.68;;;4.53;;
28245;SDS011;15510;52.512;13.300;2022-08-25T11:25:46;20.15;;;5.05;;
28245;SDS011;15510;52.512;13.300;2022-08-25T11:30:50;11.75;;;4.38;;
28245;SDS011;15510;52.512;13.300;2022-08-25T11:33:17;13.05;;;4.53;;
28245;SDS011;15510;52.512;13.300;2022-08-25T11:35:54;15.82;;;4.80;;
28245;SDS011;15510;52.512;13.300;2022-08-25T11:41:26;8.40;;;4.43;;
28245;SDS011;15510;52.512;13.300;2022-08-25T11:47:02;11.20;;;4.07;;
28245;SDS011;15510;52.512;13.300;2022-08-25T11:49:55;11.88;;;6.00;;
28245;SDS011;15510;52.512;13.300;2022-08-25T11:57:45;14.27;;;4.10;;
28245;SDS011;15510;52.512;13.300;2022-08-25T12:03:44;7.45;;;3.40;;
28245;SDS011;15510;52.512;13.300;2022-08-25T12:29:53;9.90;;;3.88;;
28245;SDS011;15510;52.512;13.300;2022-08-25T12:35:31;18.00;;;6.28;;
28245;SDS011;15510;52.512;13.300;2022-08-25T12:38:09;13.88;;;5.53;;
28245;SDS011;15510;52.512;13.300;2022-08-25T12:45:39;17.58;;;4.45;;
28245;SDS011;15510;52.512;13.300;2022-08-25T12:51:03;10.80;;;3.20;;
28245;SDS011;15510;52.512;13.300;2022-08-25T12:53:34;14.57;;;3.78;;
28245;SDS011;15510;52.512;13.300;2022-08-25T12:56:51;14.05;;;3.85;;
28245;SDS011;15510;52.512;13.300;2022-08-25T13:15:34;10.75;;;2.90;;
28245;SDS011;15510;52.512;13.300;2022-08-25T13:18:16;12.82;;;3.70;;
28245;SDS011;15510;52.512;13.300;2022-08-25T13:20:54;8.07;;;3.35;;
28245;SDS011;15510;52.512;13.300;2022-08-25T13:23:39;10.57;;;3.30;;
28245;SDS011;15510;52.512;13.300;2022-08-25T13:26:08;10.40;;;3.47;;
28245;SDS011;15510;52.512;13.300;2022-08-25T13:28:41;10.50;;;3.30;;
28245;SDS011;15510;52.512;13.300;2022-08-25T13:31:18;13.82;;;3.55;;
28245;SDS011;15510;52.512;13.300;2022-08-25T13:33:53;14.77;;;4.03;;
28245;SDS011;15510;52.512;13.300;2022-08-25T13:36:24;10.98;;;4.05;;
28245;SDS011;15510;52.512;13.300;2022-08-25T13:39:18;13.50;;;3.85;;
28245;SDS011;15510;52.512;13.300;2022-08-25T13:41:47;11.07;;;7.93;;
28245;SDS011;15510;52.512;13.300;2022-08-25T13:44:15;9.75;;;3.10;;
28245;SDS011;15510;52.512;13.300;2022-08-25T13:46:43;12.18;;;3.45;;
28245;SDS011;15510;52.512;13.300;2022-08-25T13:49:10;12.95;;;2.80;;
28245;SDS011;15510;52.512;13.300;2022-08-25T13:51:37;10.95;;;3.33;;
28245;SDS011;15510;52.512;13.300;2022-08-25T13:54:26;9.38;;;3.38;;
28245;SDS011;15510;52.512;13.300;2022-08-25T13:57:02;8.50;;;3.17;;
28245;SDS011;15510;52.512;13.300;2022-08-25T13:59:38;13.25;;;3.97;;
28245;SDS011;15510;52.512;13.300;2022-08-25T14:02:06;9.65;;;3.10;;
28245;SDS011;15510;52.512;13.300;2022-08-25T14:18:00;12.48;;;2.97;;
28245;SDS011;15510;52.512;13.300;2022-08-25T14:20:31;10.23;;;3.45;;
28245;SDS011;15510;52.512;13.300;2022-08-25T14:23:04;11.52;;;3.50;;
28245;SDS011;15510;52.512;13.300;2022-08-25T14:25:32;13.48;;;3.70;;
28245;SDS011;15510;52.512;13.300;2022-08-25T14:28:03;10.45;;;3.50;;
28245;SDS011;15510;52.512;13.300;2022-08-25T14:30:34;11.05;;;3.95;;
28245;SDS011;15510;52.512;13.300;2022-08-25T14:33:03;11.23;;;3.85;;
28245;SDS011;15510;52.512;13.300;2022-08-25T14:35:29;21.45;;;8.27;;
28245;SDS011;15510;52.512;13.300;2022-08-25T14:37:55;15.80;;;4.47;;
28245;SDS011;15510;52.512;13.300;2022-08-25T14:40:21;11.13;;;4.55;;
28245;SDS011;15510;52.512;13.300;2022-08-25T14:42:48;10.88;;;3.95;;
28245;SDS011;15510;52.512;13.300;2022-08-25T14:45:17;12.63;;;3.88;;
28245;SDS011;15510;52.512;13.300;2022-08-25T14:47:43;11.45;;;4.78;;
28245;SDS011;15510;52.512;13.300;2022-08-25T14:50:13;16.48;;;10.43;;
28245;SDS011;15510;52.512;13.300;2022-08-25T14:52:39;10.80;;;4.15;;
28245;SDS011;15510;52.512;13.300;2022-08-25T14:55:07;7.05;;;4.03;;
28245;SDS011;15510;52.512;13.300;2022-08-25T14:57:34;11.85;;;3.88;;
28245;SDS011;15510;52.512;13.300;2022-08-25T15:00:00;9.05;;;4.10;;
28245;SDS011;15510;52.512;13.300;2022-08-25T15:02:27;15.35;;;5.80;;
28245;SDS011;15510;52.512;13.300;2022-08-25T15:04:54;15.88;;;9.07;;
28245;SDS011;15510;52.512;13.300;2022-08-25T15:07:23;10.52;;;4.55;;
28245;SDS011;15510;52.512;13.300;2022-08-25T15:10:08;12.25;;;4.00;;
28245;SDS011;15510;52.512;13.300;2022-08-25T15:12:34;10.07;;;3.92;;
28245;SDS011;15510;52.512;13.300;2022-08-25T15:15:00;6.88;;;3.90;;
28245;SDS011;15510;52.512;13.300;2022-08-25T15:17:26;14.68;;;4.30;;
28245;SDS011;15510;52.512;13.300;2022-08-25T15:19:52;14.00;;;3.95;;
28245;SDS011;15510;52.512;13.300;2022-08-25T15:22:18;12.38;;;4.45;;
28245;SDS011;15510;52.512;13.300;2022-08-25T15:24:43;14.07;;;4.40;;
28245;SDS011;15510;52.512;13.300;2022-08-25T15:27:09;10.93;;;4.25;;
28245;SDS011;15510;52.512;13.300;2022-08-25T15:29:37;11.38;;;4.47;;
28245;SDS011;15510;52.512;13.300;2022-08-25T15:32:05;11.32;;;3.63;;
28245;SDS011;15510;52.512;13.300;2022-08-25T15:34:32;18.10;;;5.22;;
28245;SDS011;15510;52.512;13.300;2022-08-25T15:36:58;10.77;;;4.38;;
28245;SDS011;15510;52.512;13.300;2022-08-25T15:39:38;9.68;;;4.43;;
28245;SDS011;15510;52.512;13.300;2022-08-25T15:42:05;14.48;;;4.10;;
28245;SDS011;15510;52.512;13.300;2022-08-25T15:44:32;14.32;;;4.40;;
28245;SDS011;15510;52.512;13.300;2022-08-25T15:46:58;16.15;;;3.80;;
28245;SDS011;15510;52.512;13.300;2022-08-25T15:49:24;16.05;;;4.80;;
28245;SDS011;15510;52.512;13.300;2022-08-25T15:51:51;13.02;;;6.47;;
28245;SDS011;15510;52.512;13.300;2022-08-25T15:54:17;16.50;;;4.03;;
28245;SDS011;15510;52.512;13.300;2022-08-25T15:56:44;11.85;;;4.10;;
28245;SDS011;15510;52.512;13.300;2022-08-25T15:59:09;15.25;;;4.22;;
28245;SDS011;15510;52.512;13.300;2022-08-25T16:01:37;11.52;;;5.13;;
28245;SDS011;15510;52.512;13.300;2022-08-25T16:04:03;15.65;;;7.15;;
28245;SDS011;15510;52.512;13.300;2022-08-25T16:06:29;9.75;;;4.32;;
28245;SDS011;15510;52.512;13.300;2022-08-25T16:08:54;11.77;;;3.83;;
28245;SDS011;15510;52.512;13.300;2022-08-25T16:11:24;15.75;;;4.00;;
28245;SDS011;15510;52.512;13.300;2022-08-25T16:13:52;12.75;;;3.90;;
28245;SDS011;15510;52.512;13.300;2022-08-25T16:16:20;13.23;;;4.10;;
28245;SDS011;15510;52.512;13.300;2022-08-25T16:18:48;14.52;;;4.43;;
28245;SDS011;15510;52.512;13.300;2022-08-25T16:21:15;10.70;;;4.10;;
28245;SDS011;15510;52.512;13.300;2022-08-25T16:23:45;12.05;;;4.38;;
28245;SDS011;15510;52.512;13.300;2022-08-25T16:26:12;12.35;;;3.58;;
28245;SDS011;15510;52.512;13.300;2022-08-25T16:28:39;9.10;;;4.40;;
28245;SDS011;15510;52.512;13.300;2022-08-25T16:31:07;13.55;;;4.18;;
28245;SDS011;15510;52.512;13.300;2022-08-25T16:33:34;13.73;;;4.30;;
28245;SDS011;15510;52.512;13.300;2022-08-25T16:36:06;11.90;;;4.07;;
28245;SDS011;15510;52.512;13.300;2022-08-25T16:38:35;13.18;;;4.13;;
28245;SDS011;15510;52.512;13.300;2022-08-25T16:41:05;13.50;;;4.70;;
28245;SDS011;15510;52.512;13.300;2022-08-25T16:43:31;11.48;;;4.57;;
28245;SDS011;15510;52.512;13.300;2022-08-25T16:45:58;14.90;;;4.63;;
28245;SDS011;15510;52.512;13.300;2022-08-25T16:48:25;13.52;;;3.83;;
28245;SDS011;15510;52.512;13.300;2022-08-25T16:50:51;14.40;;;4.70;;
28245;SDS011;15510;52.512;13.300;2022-08-25T16:53:17;10.95;;;4.18;;